Time;durP1;ratioP1;P1;durP2;ratioP2;P2;SDS_P1;SDS_P2;PMS_P1;PMS_P2;Temp;Humidity;BMP_temperature;BMP_pressure;BME280_temperature;BME280_humidity;BME280_pressure;Samples;Min_cycle;Max_cycle;Signal;HPM_P1;HPM_P2
2022/09/06 00:01:37;;;;;;;1.45;1.35;;;;;;;;;;5038060;28;20035;-65
2022/09/06 00:04:02;;;;;;;1.38;1.27;;;;;;;;;;5054766;28;20018;-65
2022/09/06 00:06:28;;;;;;;2.05;1.38;;;;;;;;;;5055813;28;20059;-65
2022/09/06 00:08:53;;;;;;;2.65;1.80;;;;;;;;;;5055859;28;20036;-65
2022/09/06 00:11:19;;;;;;;1.40;1.30;;;;;;;;;;5055802;28;20036;-65
2022/09/06 00:13:45;;;;;;;1.75;1.45;;;;;;;;;;5055857;28;20049;-65
2022/09/06 00:16:12;;;;;;;2.30;1.55;;;;;;;;;;5055612;28;20029;-65
2022/09/06 00:18:37;;;;;;;1.42;1.30;;;;;;;;;;5037706;28;20061;-65
2022/09/06 00:21:11;;;;;;;2.67;1.50;;;;;;;;;;5055595;28;20076;-65
2022/09/06 00:23:36;;;;;;;1.73;1.60;;;;;;;;;;5055549;28;20079;-65
2022/09/06 00:26:03;;;;;;;4.30;1.40;;;;;;;;;;5070709;22;20527;-61
2022/09/06 00:28:28;;;;;;;2.47;1.48;;;;;;;;;;5057300;28;20468;-61
2022/09/06 00:30:54;;;;;;;1.55;1.23;;;;;;;;;;5055362;28;20021;-61
2022/09/06 00:33:19;;;;;;;2.88;1.50;;;;;;;;;;5055351;28;20381;-61
2022/09/06 00:35:46;;;;;;;1.55;1.30;;;;;;;;;;5055486;28;20380;-61
2022/09/06 00:38:11;;;;;;;2.35;1.58;;;;;;;;;;5055256;28;20029;-61
2022/09/06 00:40:37;;;;;;;1.75;1.30;;;;;;;;;;5055284;28;20427;-62
2022/09/06 00:43:02;;;;;;;2.42;1.60;;;;;;;;;;5055135;28;20040;-61
2022/09/06 00:45:28;;;;;;;1.77;1.40;;;;;;;;;;5055017;28;20419;-62
2022/09/06 00:47:53;;;;;;;1.80;1.30;;;;;;;;;;5055014;28;20025;-62
2022/09/06 00:50:20;;;;;;;1.83;1.40;;;;;;;;;;5055035;28;20016;-62
2022/09/06 00:53:01;;;;;;;3.47;1.67;;;;;;;;;;5062703;22;20027;-65
2022/09/06 00:55:27;;;;;;;1.20;1.13;;;;;;;;;;5052689;28;20037;-65
2022/09/06 00:57:52;;;;;;;1.45;1.35;;;;;;;;;;5055196;28;20098;-65
2022/09/06 01:00:18;;;;;;;1.60;1.30;;;;;;;;;;5054832;28;20491;-65
2022/09/06 01:02:44;;;;;;;2.83;1.63;;;;;;;;;;5054726;28;20040;-65
2022/09/06 01:05:10;;;;;;;3.40;1.33;;;;;;;;;;5054671;28;20040;-65
2022/09/06 01:08:05;;;;;;;1.40;1.30;;;;;;;;;;5037401;28;20092;-65
2022/09/06 01:10:30;;;;;;;2.55;1.20;;;;;;;;;;4984845;28;20404;-65
2022/09/06 01:13:19;;;;;;;1.70;1.60;;;;;;;;;;5036781;28;20029;-65
2022/09/06 01:15:54;;;;;;;1.65;1.40;;;;;;;;;;5054485;28;20374;-65
2022/09/06 01:18:22;;;;;;;1.90;1.30;;;;;;;;;;5054458;28;20395;-65
2022/09/06 01:20:51;;;;;;;1.52;1.40;;;;;;;;;;5036421;28;20420;-65
2022/09/06 01:23:19;;;;;;;1.50;1.40;;;;;;;;;;5054666;28;20029;-65
2022/09/06 01:26:03;;;;;;;2.17;1.27;;;;;;;;;;5036595;28;20516;-65
2022/09/06 01:28:34;;;;;;;1.60;1.50;;;;;;;;;;5054600;28;20017;-65
2022/09/06 01:31:07;;;;;;;2.95;1.33;;;;;;;;;;5054541;28;20044;-65
2022/09/06 01:33:51;;;;;;;1.50;1.38;;;;;;;;;;5054226;28;20075;-65
2022/09/06 01:36:18;;;;;;;1.50;1.40;;;;;;;;;;5054363;28;20502;-65
2022/09/06 01:38:44;;;;;;;1.58;1.40;;;;;;;;;;5054118;28;20086;-65
2022/09/06 01:41:09;;;;;;;2.97;1.20;;;;;;;;;;5052721;28;20033;-65
2022/09/06 01:43:37;;;;;;;1.75;1.45;;;;;;;;;;5054041;28;20020;-65
2022/09/06 01:46:22;;;;;;;2.80;1.48;;;;;;;;;;5036279;28;20033;-65
2022/09/06 01:48:58;;;;;;;3.92;1.50;;;;;;;;;;5053431;28;20033;-65
2022/09/06 01:51:49;;;;;;;1.42;1.20;;;;;;;;;;5036418;28;20439;-65
2022/09/06 01:54:18;;;;;;;1.77;1.13;;;;;;;;;;5060833;28;20491;-65
2022/09/06 01:56:53;;;;;;;3.28;1.50;;;;;;;;;;5074046;28;20036;-65
2022/09/06 01:59:27;;;;;;;2.20;1.70;;;;;;;;;;5074344;28;20036;-65
2022/09/06 02:02:15;;;;;;;2.28;1.38;;;;;;;;;;5074265;28;20043;-65
2022/09/06 02:04:41;;;;;;;1.45;1.23;;;;;;;;;;5073731;28;20048;-65
2022/09/06 02:07:13;;;;;;;3.28;1.40;;;;;;;;;;5055726;28;20040;-65
2022/09/06 02:09:41;;;;;;;1.70;1.60;;;;;;;;;;5055711;28;20115;-65
2022/09/06 02:12:07;;;;;;;1.80;1.70;;;;;;;;;;5073939;28;20078;-65
2022/09/06 02:14:39;;;;;;;3.45;1.45;;;;;;;;;;5073910;28;20024;-65
2022/09/06 02:17:07;;;;;;;1.23;1.20;;;;;;;;;;5073672;28;20079;-65
2022/09/06 02:19:34;;;;;;;1.60;1.50;;;;;;;;;;5073818;28;20031;-62
2022/09/06 02:22:03;;;;;;;2.70;1.10;;;;;;;;;;5114698;22;20127;-65
2022/09/06 02:24:30;;;;;;;2.15;1.40;;;;;;;;;;5076211;28;20448;-65
2022/09/06 02:26:56;;;;;;;2.42;1.38;;;;;;;;;;5074553;28;20059;-65
2022/09/06 02:29:22;;;;;;;2.00;1.65;;;;;;;;;;5074065;28;20048;-65
2022/09/06 02:31:53;;;;;;;2.40;1.42;;;;;;;;;;5073725;28;20036;-65
2022/09/06 02:34:18;;;;;;;;;;;;;;;;;;5074130;28;20035;-65
2022/09/06 02:36:44;;;;;;;2.72;1.60;;;;;;;;;;5089139;28;19908;-65
2022/09/06 02:39:10;;;;;;;1.77;1.50;;;;;;;;;;5073911;28;20025;-65
2022/09/06 02:41:36;;;;;;;1.67;1.50;;;;;;;;;;5073261;28;20040;-65
2022/09/06 02:44:01;;;;;;;1.58;1.48;;;;;;;;;;5072054;28;20021;-65
2022/09/06 02:46:27;;;;;;;2.35;1.70;;;;;;;;;;5073865;28;20111;-65
2022/09/06 02:48:52;;;;;;;2.60;1.45;;;;;;;;;;5072013;28;20044;-65
2022/09/06 02:51:19;;;;;;;1.85;1.63;;;;;;;;;;5073244;28;20384;-65
2022/09/06 02:53:44;;;;;;;2.00;1.40;;;;;;;;;;5073808;28;20024;-61
2022/09/06 02:56:10;;;;;;;2.28;1.73;;;;;;;;;;5055223;28;20032;-61
2022/09/06 02:58:35;;;;;;;1.67;1.42;;;;;;;;;;5073168;28;20032;-61
2022/09/06 03:01:01;;;;;;;3.10;1.60;;;;;;;;;;5055108;28;20384;-61
2022/09/06 03:03:27;;;;;;;1.80;1.70;;;;;;;;;;5073133;28;20059;-61
2022/09/06 03:05:53;;;;;;;3.67;1.70;;;;;;;;;;5073116;28;20492;-62
2022/09/06 03:08:19;;;;;;;2.63;1.67;;;;;;;;;;5073104;28;20047;-61
2022/09/06 03:10:48;;;;;;;2.13;1.55;;;;;;;;;;5073096;28;20022;-61
2022/09/06 03:13:14;;;;;;;1.90;1.80;;;;;;;;;;5073067;28;20368;-61
2022/09/06 03:15:40;;;;;;;1.60;1.50;;;;;;;;;;5073320;28;20020;-62
2022/09/06 03:18:05;;;;;;;2.13;1.50;;;;;;;;;;5073557;28;20025;-61
2022/09/06 03:20:31;;;;;;;3.28;1.85;;;;;;;;;;5073284;28;20100;-62
2022/09/06 03:22:56;;;;;;;1.63;1.52;;;;;;;;;;5072913;28;20066;-62
2022/09/06 03:25:22;;;;;;;1.52;1.40;;;;;;;;;;5055468;28;20059;-61
2022/09/06 03:27:47;;;;;;;3.42;1.45;;;;;;;;;;5073225;28;20052;-61
2022/09/06 03:30:13;;;;;;;1.60;1.50;;;;;;;;;;5072944;28;20081;-61
2022/09/06 03:32:38;;;;;;;2.10;1.70;;;;;;;;;;5054932;28;20020;-61
2022/09/06 03:35:04;;;;;;;1.70;1.60;;;;;;;;;;5073124;28;20091;-62
2022/09/06 03:37:29;;;;;;;3.25;1.67;;;;;;;;;;5073178;28;20024;-62
2022/09/06 03:39:55;;;;;;;2.00;1.80;;;;;;;;;;5076669;28;20036;-62
2022/09/06 03:42:20;;;;;;;2.20;1.65;;;;;;;;;;5076548;28;20116;-62
2022/09/06 03:44:46;;;;;;;2.05;1.85;;;;;;;;;;5076330;28;20025;-61
2022/09/06 03:47:11;;;;;;;2.72;1.98;;;;;;;;;;5076537;28;20023;-62
2022/09/06 03:49:37;;;;;;;3.45;1.90;;;;;;;;;;5076505;28;20495;-61
2022/09/06 03:52:02;;;;;;;2.75;1.83;;;;;;;;;;5076431;28;20048;-62
2022/09/06 03:54:28;;;;;;;2.13;1.67;;;;;;;;;;5076663;28;20488;-61
2022/09/06 03:56:53;;;;;;;2.63;1.90;;;;;;;;;;5076073;28;20020;-61
2022/09/06 03:59:20;;;;;;;2.30;1.73;;;;;;;;;;5076562;28;20032;-61
2022/09/06 04:01:45;;;;;;;1.88;1.67;;;;;;;;;;5076508;28;20027;-62
2022/09/06 04:04:10;;;;;;;2.63;1.55;;;;;;;;;;5076196;28;20104;-62
2022/09/06 04:06:37;;;;;;;2.72;1.63;;;;;;;;;;5076214;28;20013;-61
2022/09/06 04:09:02;;;;;;;2.50;1.80;;;;;;;;;;5076434;28;20028;-61
2022/09/06 04:11:28;;;;;;;2.10;1.85;;;;;;;;;;5076121;28;20035;-61
2022/09/06 04:13:53;;;;;;;1.80;1.70;;;;;;;;;;5074583;28;20059;-61
2022/09/06 04:16:18;;;;;;;4.22;2.03;;;;;;;;;;5075909;28;20426;-61
2022/09/06 04:18:44;;;;;;;3.22;2.10;;;;;;;;;;5096076;22;21419;-64
2022/09/06 04:21:10;;;;;;;2.50;1.90;;;;;;;;;;5116427;28;20085;-65
2022/09/06 04:23:35;;;;;;;2.90;2.08;;;;;;;;;;5116183;28;20348;-65
2022/09/06 04:26:00;;;;;;;3.47;2.10;;;;;;;;;;5116435;28;20023;-65
2022/09/06 04:28:26;;;;;;;2.42;2.10;;;;;;;;;;5116386;28;20016;-65
2022/09/06 04:30:58;;;;;;;2.20;2.00;;;;;;;;;;5116049;28;20352;-65
2022/09/06 04:33:25;;;;;;;2.65;2.42;;;;;;;;;;5116018;28;20028;-65
2022/09/06 04:35:55;;;;;;;4.25;2.28;;;;;;;;;;5116241;28;20447;-65
2022/09/06 04:38:22;;;;;;;4.05;2.00;;;;;;;;;;5116204;28;20023;-65
2022/09/06 04:40:47;;;;;;;3.33;2.00;;;;;;;;;;5116699;28;20026;-65
2022/09/06 04:43:12;;;;;;;5.45;2.25;;;;;;;;;;5117849;28;20382;-65
2022/09/06 04:45:38;;;;;;;2.35;2.00;;;;;;;;;;5116866;28;20023;-65
2022/09/06 04:48:03;;;;;;;5.60;2.10;;;;;;;;;;5097523;28;20028;-65
2022/09/06 04:50:28;;;;;;;5.05;2.08;;;;;;;;;;5115676;28;20023;-65
2022/09/06 04:53:03;;;;;;;4.95;2.05;;;;;;;;;;5115853;28;20437;-65
2022/09/06 04:55:30;;;;;;;4.03;2.03;;;;;;;;;;5115574;28;20032;-65
2022/09/06 04:57:58;;;;;;;2.45;2.25;;;;;;;;;;5115579;28;20031;-65
2022/09/06 05:00:25;;;;;;;3.35;2.28;;;;;;;;;;5115769;28;20055;-65
2022/09/06 05:02:50;;;;;;;3.72;2.97;;;;;;;;;;5115402;28;20045;-65
2022/09/06 05:05:16;;;;;;;4.13;2.65;;;;;;;;;;5115566;28;20035;-65
2022/09/06 05:07:41;;;;;;;4.25;2.72;;;;;;;;;;5115640;28;20011;-65
2022/09/06 05:10:07;;;;;;;3.58;2.40;;;;;;;;;;5115877;28;20019;-65
2022/09/06 05:12:32;;;;;;;2.30;2.10;;;;;;;;;;5115548;28;20019;-65
2022/09/06 05:14:57;;;;;;;2.60;2.00;;;;;;;;;;5115498;28;20034;-65
2022/09/06 05:17:23;;;;;;;2.35;2.00;;;;;;;;;;5115203;28;20027;-65
2022/09/06 05:19:48;;;;;;;3.00;1.90;;;;;;;;;;5114864;28;20131;-65
2022/09/06 05:22:14;;;;;;;2.17;1.90;;;;;;;;;;5096720;28;20032;-65
2022/09/06 05:24:39;;;;;;;4.72;2.25;;;;;;;;;;5115314;28;20020;-65
2022/09/06 05:27:06;;;;;;;2.85;1.95;;;;;;;;;;5096721;28;20390;-65
2022/09/06 05:29:32;;;;;;;2.10;1.90;;;;;;;;;;5115210;28;20023;-65
2022/09/06 05:31:57;;;;;;;3.90;1.85;;;;;;;;;;5115438;28;20016;-65
2022/09/06 05:34:23;;;;;;;3.70;1.90;;;;;;;;;;5114851;28;20076;-65
2022/09/06 05:36:48;;;;;;;3.38;2.03;;;;;;;;;;5114786;28;20027;-65
2022/09/06 05:39:13;;;;;;;3.22;2.05;;;;;;;;;;5115021;28;20080;-66
2022/09/06 05:41:39;;;;;;;1.83;1.73;;;;;;;;;;5115197;28;20064;-65
2022/09/06 05:44:04;;;;;;;2.00;1.80;;;;;;;;;;5114670;28;20383;-65
2022/09/06 05:46:30;;;;;;;5.13;2.35;;;;;;;;;;5114935;28;20363;-66
2022/09/06 05:49:03;;;;;;;2.22;1.95;;;;;;;;;;5114583;28;20027;-65
2022/09/06 05:51:30;;;;;;;3.08;2.22;;;;;;;;;;5114537;28;20478;-66
2022/09/06 05:53:55;;;;;;;2.17;2.00;;;;;;;;;;5096234;28;20024;-65
2022/09/06 05:56:21;;;;;;;3.13;1.85;;;;;;;;;;5114737;28;20379;-66
2022/09/06 05:58:46;;;;;;;4.05;2.20;;;;;;;;;;5114714;28;20016;-65
2022/09/06 06:01:18;;;;;;;4.55;2.75;;;;;;;;;;5095402;28;20497;-65
2022/09/06 06:04:10;;;;;;;6.95;2.78;;;;;;;;;;5114315;28;20034;-66
2022/09/06 06:06:35;;;;;;;8.93;2.40;;;;;;;;;;5109765;28;20096;-66
2022/09/06 06:09:01;;;;;;;7.60;4.90;;;;;;;;;;5114310;28;20016;-66
2022/09/06 06:11:26;;;;;;;2.00;1.75;;;;;;;;;;5114189;28;20026;-66
2022/09/06 06:16:35;;;;;;;4.60;2.42;;;;;;;;;;5101810;22;20139;-66
2022/09/06 06:19:00;;;;;;;7.80;3.40;;;;;;;;;;5094365;28;20452;-65
2022/09/06 06:21:28;;;;;;;12.75;5.40;;;;;;;;;;5093617;28;20270;-65
2022/09/06 06:23:54;;;;;;;3.63;2.20;;;;;;;;;;5093979;28;20460;-65
2022/09/06 06:26:20;;;;;;;11.57;6.35;;;;;;;;;;5094238;28;20054;-66
2022/09/06 06:28:45;;;;;;;15.15;7.93;;;;;;;;;;5093892;28;20020;-66
2022/09/06 06:31:11;;;;;;;14.38;7.35;;;;;;;;;;5093946;28;20016;-66
2022/09/06 06:33:37;;;;;;;14.88;9.27;;;;;;;;;;5075439;28;20043;-65
2022/09/06 06:36:07;;;;;;;27.42;14.70;;;;;;;;;;5093823;28;20027;-65
2022/09/06 06:38:33;;;;;;;34.08;16.58;;;;;;;;;;5093548;28;20032;-66
2022/09/06 06:40:59;;;;;;;9.80;5.47;;;;;;;;;;5075347;28;20023;-65
2022/09/06 06:43:25;;;;;;;4.97;2.97;;;;;;;;;;5075444;28;20032;-73
2022/09/06 06:45:50;;;;;;;6.15;3.97;;;;;;;;;;5093485;28;20100;-68
2022/09/06 06:48:16;;;;;;;6.40;3.60;;;;;;;;;;5093751;28;20079;-67
2022/09/06 06:50:41;;;;;;;7.57;4.45;;;;;;;;;;5075768;28;20024;-67
2022/09/06 06:53:06;;;;;;;6.72;3.45;;;;;;;;;;5093744;28;20391;-67
2022/09/06 06:55:32;;;;;;;6.03;4.43;;;;;;;;;;5093407;28;20056;-67
2022/09/06 06:58:00;;;;;;;3.88;3.47;;;;;;;;;;5093662;28;20025;-67
2022/09/06 07:00:26;;;;;;;4.45;3.10;;;;;;;;;;5093408;28;20055;-67
2022/09/06 07:02:55;;;;;;;3.10;2.50;;;;;;;;;;5075845;28;20060;-67
2022/09/06 07:05:23;;;;;;;4.75;2.72;;;;;;;;;;5093648;28;20130;-67
2022/09/06 07:07:49;;;;;;;4.65;2.42;;;;;;;;;;5093290;28;20024;-67
2022/09/06 07:10:14;;;;;;;2.53;1.80;;;;;;;;;;5075154;28;20482;-67
2022/09/06 07:12:40;;;;;;;5.60;2.80;;;;;;;;;;5094654;28;20085;-68
2022/09/06 07:15:05;;;;;;;4.15;2.75;;;;;;;;;;5097640;28;20028;-67
2022/09/06 07:17:31;;;;;;;9.07;2.55;;;;;;;;;;5097317;28;20440;-67
2022/09/06 07:19:56;;;;;;;8.18;2.35;;;;;;;;;;5079546;28;20361;-67
2022/09/06 07:22:22;;;;;;;3.72;2.08;;;;;;;;;;5096901;28;20031;-67
2022/09/06 07:24:47;;;;;;;2.28;1.90;;;;;;;;;;5097190;28;20009;-67
2022/09/06 07:27:13;;;;;;;2.60;2.40;;;;;;;;;;5096898;28;20024;-67
2022/09/06 07:29:39;;;;;;;2.53;2.33;;;;;;;;;;5097152;28;20073;-67
2022/09/06 07:32:05;;;;;;;3.85;2.10;;;;;;;;;;5097387;28;20110;-67
2022/09/06 07:34:32;;;;;;;3.95;1.90;;;;;;;;;;5096760;28;20050;-67
2022/09/06 07:36:58;;;;;;;2.50;1.90;;;;;;;;;;5096732;28;20024;-67
2022/09/06 07:39:23;;;;;;;2.90;1.95;;;;;;;;;;5078514;28;20383;-67
2022/09/06 07:41:49;;;;;;;3.22;2.10;;;;;;;;;;5096836;28;20038;-67
2022/09/06 07:44:14;;;;;;;2.65;1.70;;;;;;;;;;5096603;28;20069;-67
2022/09/06 07:46:40;;;;;;;3.17;1.60;;;;;;;;;;5096529;28;20024;-67
2022/09/06 07:49:05;;;;;;;3.42;1.73;;;;;;;;;;5096766;28;20019;-67
2022/09/06 07:51:31;;;;;;;1.77;1.67;;;;;;;;;;5096456;28;20085;-67
2022/09/06 07:53:56;;;;;;;3.15;1.50;;;;;;;;;;5096369;28;20032;-67
2022/09/06 07:56:23;;;;;;;2.05;1.80;;;;;;;;;;5096638;28;20065;-67
2022/09/06 07:58:49;;;;;;;1.73;1.35;;;;;;;;;;5096331;28;20020;-67
2022/09/06 08:01:14;;;;;;;4.72;1.70;;;;;;;;;;5078476;28;20491;-67
2022/09/06 08:03:39;;;;;;;1.52;1.42;;;;;;;;;;5096541;28;20020;-67
2022/09/06 08:06:05;;;;;;;1.50;1.40;;;;;;;;;;5096176;28;20471;-67
2022/09/06 08:08:30;;;;;;;1.67;1.50;;;;;;;;;;5096724;28;20349;-67
2022/09/06 08:10:56;;;;;;;3.00;1.70;;;;;;;;;;5096595;28;20034;-62
2022/09/06 08:13:21;;;;;;;2.00;1.70;;;;;;;;;;5096332;28;20024;-62
2022/09/06 08:15:47;;;;;;;2.58;1.38;;;;;;;;;;5095893;28;20066;-62
2022/09/06 08:18:12;;;;;;;2.17;1.40;;;;;;;;;;5077821;28;20028;-62
2022/09/06 08:20:38;;;;;;;1.92;1.63;;;;;;;;;;5096177;28;20099;-62
2022/09/06 08:23:09;;;;;;;2.63;1.40;;;;;;;;;;5096055;28;20086;-62
2022/09/06 08:25:35;;;;;;;2.28;1.40;;;;;;;;;;5076643;28;20028;-62
2022/09/06 08:28:00;;;;;;;3.33;1.40;;;;;;;;;;5095718;28;20026;-62
2022/09/06 08:30:28;;;;;;;1.30;1.20;;;;;;;;;;5077729;28;20095;-62
2022/09/06 08:32:53;;;;;;;5.65;1.73;;;;;;;;;;5095952;28;20103;-62
2022/09/06 08:35:19;;;;;;;2.38;1.30;;;;;;;;;;5095620;28;20432;-62
2022/09/06 08:37:44;;;;;;;1.70;1.40;;;;;;;;;;5095533;28;20035;-62
2022/09/06 08:40:10;;;;;;;4.95;1.90;;;;;;;;;;5077397;28;20024;-62
2022/09/06 08:42:39;;;;;;;3.55;1.83;;;;;;;;;;5095912;28;20449;-62
2022/09/06 08:45:08;;;;;;;1.73;1.20;;;;;;;;;;5095382;28;20491;-62
2022/09/06 08:47:33;;;;;;;2.10;1.40;;;;;;;;;;5077139;28;20364;-62
2022/09/06 08:50:04;;;;;;;3.25;1.48;;;;;;;;;;5095335;28;20027;-62
2022/09/06 08:52:29;;;;;;;;;;;;;;;;;;5095735;28;20035;-62
2022/09/06 08:54:55;;;;;;;3.50;1.40;;;;;;;;;;5095224;28;19910;-62
2022/09/06 08:57:44;;;;;;;2.03;1.20;;;;;;;;;;5095759;28;20028;-62
2022/09/06 09:00:11;;;;;;;2.80;1.20;;;;;;;;;;5077020;28;20468;-61
2022/09/06 09:02:47;;;;;;;3.55;1.00;;;;;;;;;;5095287;28;20032;-62
2022/09/06 09:05:19;;;;;;;1.48;1.15;;;;;;;;;;5076883;28;20020;-61
2022/09/06 09:08:11;;;;;;;2.03;1.20;;;;;;;;;;5095257;28;20384;-62
2022/09/06 09:10:45;;;;;;;3.05;1.30;;;;;;;;;;5076987;28;20067;-61
2022/09/06 09:13:16;;;;;;;3.30;1.30;;;;;;;;;;5095453;28;20444;-62
2022/09/06 09:15:41;;;;;;;;;;;;;;;;;;5095032;28;20036;-61
2022/09/06 09:18:07;;;;;;;3.70;2.70;;;;;;;;;;5095396;28;19915;-61
2022/09/06 09:20:32;;;;;;;3.58;1.80;;;;;;;;;;5095039;28;20352;-61
2022/09/06 09:22:58;;;;;;;0.88;0.75;;;;;;;;;;5094610;28;20073;-62
2022/09/06 09:25:23;;;;;;;2.30;1.20;;;;;;;;;;5094966;28;20077;-62
2022/09/06 09:27:56;;;;;;;1.38;1.10;;;;;;;;;;5094633;28;20016;-61
2022/09/06 09:30:22;;;;;;;2.22;1.20;;;;;;;;;;5094832;28;20031;-62
2022/09/06 09:32:48;;;;;;;4.00;1.20;;;;;;;;;;5095097;28;20106;-61
2022/09/06 09:35:18;;;;;;;2.10;1.00;;;;;;;;;;5094207;28;20470;-62
2022/09/06 09:37:43;;;;;;;2.75;0.85;;;;;;;;;;5094978;28;20032;-61
2022/09/06 09:40:13;;;;;;;2.70;1.20;;;;;;;;;;5094932;28;20024;-61
2022/09/06 09:42:39;;;;;;;1.02;1.02;;;;;;;;;;5094315;28;20460;-62
2022/09/06 09:45:20;;;;;;;1.80;1.35;;;;;;;;;;5094590;28;20066;-61
2022/09/06 09:47:45;;;;;;;;;;;;;;;;;;5094954;28;20357;-61
2022/09/06 09:50:22;;;;;;;2.80;1.10;;;;;;;;;;5094514;28;19915;-62
2022/09/06 09:52:48;;;;;;;0.80;0.80;;;;;;;;;;5094501;28;20028;-61
2022/09/06 09:55:13;;;;;;;1.73;0.82;;;;;;;;;;5094650;28;20505;-61
2022/09/06 09:57:43;;;;;;;1.65;1.00;;;;;;;;;;5094340;28;20111;-61
2022/09/06 10:00:12;;;;;;;3.05;1.20;;;;;;;;;;5094106;28;20028;-61
2022/09/06 10:02:38;;;;;;;1.73;1.30;;;;;;;;;;5076246;28;20028;-61
2022/09/06 10:05:04;;;;;;;1.00;0.88;;;;;;;;;;5094241;28;20062;-61
2022/09/06 10:07:31;;;;;;;3.05;1.30;;;;;;;;;;5094685;28;20024;-65
2022/09/06 10:10:04;;;;;;;1.25;1.10;;;;;;;;;;5094312;28;20020;-61
2022/09/06 10:12:37;;;;;;;1.05;0.95;;;;;;;;;;5094413;28;20111;-61
2022/09/06 10:15:03;;;;;;;3.13;1.02;;;;;;;;;;5093859;28;20028;-61
2022/09/06 10:17:30;;;;;;;2.25;1.33;;;;;;;;;;5093834;28;20055;-61
2022/09/06 10:19:58;;;;;;;1.05;0.98;;;;;;;;;;5094070;28;20031;-62
2022/09/06 10:22:47;;;;;;;2.47;1.10;;;;;;;;;;5093923;28;20034;-62
2022/09/06 10:25:19;;;;;;;2.08;1.15;;;;;;;;;;5094240;28;20032;-61
2022/09/06 10:28:08;;;;;;;1.27;1.10;;;;;;;;;;5093985;28;20135;-61
2022/09/06 10:30:37;;;;;;;1.65;1.30;;;;;;;;;;5055716;28;20036;-61
2022/09/06 10:33:21;;;;;;;1.52;1.42;;;;;;;;;;5093928;28;20038;-61
2022/09/06 10:35:46;;;;;;;3.15;1.17;;;;;;;;;;5094181;28;20028;-61
2022/09/06 10:38:19;;;;;;;2.45;1.15;;;;;;;;;;5093615;28;20379;-61
2022/09/06 10:40:48;;;;;;;1.40;1.10;;;;;;;;;;5093585;28;20054;-61
2022/09/06 10:43:19;;;;;;;1.50;1.40;;;;;;;;;;5094090;28;20028;-61
2022/09/06 10:45:45;;;;;;;2.55;1.30;;;;;;;;;;5075434;28;20020;-62
2022/09/06 10:48:26;;;;;;;2.38;1.20;;;;;;;;;;5095421;28;20008;-62
2022/09/06 10:50:57;;;;;;;2.42;1.30;;;;;;;;;;5097941;28;20040;-62
2022/09/06 10:53:36;;;;;;;1.13;1.02;;;;;;;;;;5097864;28;20472;-62
2022/09/06 10:56:15;;;;;;;1.48;1.30;;;;;;;;;;5097889;28;20042;-61
2022/09/06 10:58:53;;;;;;;1.73;1.20;;;;;;;;;;5097778;28;20043;-61
2022/09/06 11:01:23;;;;;;;1.75;1.40;;;;;;;;;;5097656;28;20382;-61
2022/09/06 11:03:50;;;;;;;1.35;1.13;;;;;;;;;;5097679;28;20386;-62
2022/09/06 11:06:16;;;;;;;2.05;1.30;;;;;;;;;;5097620;28;20453;-61
2022/09/06 11:08:44;;;;;;;2.35;1.20;;;;;;;;;;5097298;28;20028;-62
2022/09/06 11:11:14;;;;;;;2.70;1.17;;;;;;;;;;5097590;28;20117;-61
2022/09/06 11:13:39;;;;;;;2.45;1.30;;;;;;;;;;5097519;28;20020;-62
2022/09/06 11:16:08;;;;;;;3.15;1.20;;;;;;;;;;5097186;28;20044;-62
2022/09/06 11:18:36;;;;;;;2.28;1.35;;;;;;;;;;5097397;28;20020;-61
2022/09/06 11:21:02;;;;;;;1.75;1.10;;;;;;;;;;5097630;28;20073;-61
2022/09/06 11:23:41;;;;;;;3.63;1.30;;;;;;;;;;5097255;28;20114;-61
2022/09/06 11:26:07;;;;;;;2.03;1.20;;;;;;;;;;5097326;28;20028;-62
2022/09/06 11:28:41;;;;;;;1.52;1.40;;;;;;;;;;5096894;28;20017;-65
2022/09/06 11:31:09;;;;;;;1.40;1.30;;;;;;;;;;5097195;28;20028;-65
2022/09/06 11:33:38;;;;;;;1.83;1.20;;;;;;;;;;5078636;28;20038;-65
2022/09/06 11:36:17;;;;;;;1.90;1.00;;;;;;;;;;5097024;28;20028;-65
2022/09/06 11:38:52;;;;;;;4.07;1.30;;;;;;;;;;5078932;28;20086;-65
2022/09/06 11:41:17;;;;;;;2.22;1.20;;;;;;;;;;5096646;28;20024;-65
2022/09/06 11:43:49;;;;;;;3.97;1.30;;;;;;;;;;5096651;28;20412;-65
2022/09/06 11:46:33;;;;;;;1.63;1.33;;;;;;;;;;5096575;28;20115;-65
2022/09/06 11:49:01;;;;;;;1.83;1.25;;;;;;;;;;5097116;28;20024;-65
2022/09/06 11:51:34;;;;;;;2.03;1.15;;;;;;;;;;5079040;28;20027;-65
2022/09/06 11:54:02;;;;;;;2.97;1.70;;;;;;;;;;5078362;28;20032;-65
2022/09/06 11:56:40;;;;;;;1.27;1.20;;;;;;;;;;5097489;28;20031;-65
2022/09/06 11:59:10;;;;;;;1.35;1.25;;;;;;;;;;5096583;28;20445;-65
2022/09/06 12:01:36;;;;;;;;;;;;;;;;;;5096634;28;20036;-65
2022/09/06 12:04:02;;;;;;;1.52;1.40;;;;;;;;;;5078754;28;19930;-65
2022/09/06 12:06:30;;;;;;;3.03;1.30;;;;;;;;;;5096209;28;20043;-62
2022/09/06 12:08:58;;;;;;;1.73;1.60;;;;;;;;;;5096143;28;20027;-61
2022/09/06 12:11:28;;;;;;;2.53;1.38;;;;;;;;;;5096365;28;20031;-61
2022/09/06 12:13:55;;;;;;;1.65;1.50;;;;;;;;;;5077946;28;20056;-61
2022/09/06 12:16:20;;;;;;;2.67;1.25;;;;;;;;;;5077772;28;20089;-61
2022/09/06 12:18:46;;;;;;;1.60;1.50;;;;;;;;;;5095965;28;20468;-61
2022/09/06 12:21:30;;;;;;;2.90;1.23;;;;;;;;;;5096411;28;20091;-62
2022/09/06 12:23:55;;;;;;;1.60;1.50;;;;;;;;;;5096723;28;20028;-61
2022/09/06 12:26:39;;;;;;;2.00;1.80;;;;;;;;;;5095853;28;20016;-61
2022/09/06 12:29:09;;;;;;;1.85;1.70;;;;;;;;;;5096057;28;20089;-62
2022/09/06 12:31:37;;;;;;;4.65;1.60;;;;;;;;;;5095723;28;20022;-62
2022/09/06 12:34:32;;;;;;;2.08;1.80;;;;;;;;;;5095963;28;20407;-62
2022/09/06 12:37:03;;;;;;;1.67;1.48;;;;;;;;;;5078229;28;20036;-62
2022/09/06 12:39:28;;;;;;;2.90;1.52;;;;;;;;;;5095914;28;20070;-62
2022/09/06 12:41:59;;;;;;;2.10;1.67;;;;;;;;;;5095751;28;20047;-61
2022/09/06 12:44:44;;;;;;;3.50;1.67;;;;;;;;;;5095494;28;20078;-61
2022/09/06 12:47:17;;;;;;;1.58;1.30;;;;;;;;;;5095734;28;20051;-61
2022/09/06 12:49:42;;;;;;;3.28;1.48;;;;;;;;;;5095668;28;20024;-62
2022/09/06 12:52:10;;;;;;;3.70;1.77;;;;;;;;;;5095315;28;20038;-62
2022/09/06 12:54:46;;;;;;;3.22;1.40;;;;;;;;;;5096131;28;20028;-61
2022/09/06 12:57:19;;;;;;;3.08;1.65;;;;;;;;;;5078496;28;20051;-61
2022/09/06 13:00:02;;;;;;;2.17;1.45;;;;;;;;;;5095459;28;20083;-61
2022/09/06 13:02:34;;;;;;;2.80;1.65;;;;;;;;;;5095074;28;20494;-62
2022/09/06 13:05:04;;;;;;;3.67;1.40;;;;;;;;;;5076906;28;20028;-62
2022/09/06 13:07:33;;;;;;;2.53;1.52;;;;;;;;;;5095043;28;20053;-62
2022/09/06 13:09:58;;;;;;;3.30;1.77;;;;;;;;;;5077089;28;20052;-62
2022/09/06 13:12:31;;;;;;;2.20;1.77;;;;;;;;;;5076436;28;20070;-61
2022/09/06 13:14:59;;;;;;;3.40;1.50;;;;;;;;;;5095442;28;20035;-62
2022/09/06 13:17:25;;;;;;;9.48;2.17;;;;;;;;;;5094690;28;20052;-61
2022/09/06 13:19:51;;;;;;;3.78;1.80;;;;;;;;;;5076778;28;20028;-61
2022/09/06 13:22:36;;;;;;;2.95;1.85;;;;;;;;;;5094977;28;20012;-62
2022/09/06 13:25:01;;;;;;;2.97;1.98;;;;;;;;;;5094699;28;20035;-61
2022/09/06 13:27:30;;;;;;;2.95;1.90;;;;;;;;;;5094939;28;20023;-61
2022/09/06 13:29:59;;;;;;;4.10;1.90;;;;;;;;;;5076792;28;20032;-62
2022/09/06 13:32:26;;;;;;;2.50;1.67;;;;;;;;;;5094882;28;20063;-62
2022/09/06 13:34:55;;;;;;;1.80;1.70;;;;;;;;;;5094798;28;20246;-61
2022/09/06 13:37:25;;;;;;;2.47;1.67;;;;;;;;;;5094510;28;20115;-61
2022/09/06 13:39:51;;;;;;;2.40;1.90;;;;;;;;;;5094483;28;20016;-61
2022/09/06 13:42:27;;;;;;;2.25;1.75;;;;;;;;;;5076590;28;20464;-62
2022/09/06 13:44:53;;;;;;;6.78;2.10;;;;;;;;;;5076150;28;20056;-62
2022/09/06 13:47:18;;;;;;;2.15;2.00;;;;;;;;;;5094312;28;20036;-62
2022/09/06 13:49:45;;;;;;;3.72;1.98;;;;;;;;;;5094271;28;20391;-62
2022/09/06 13:52:10;;;;;;;4.22;2.13;;;;;;;;;;5076019;28;20024;-62
2022/09/06 13:54:36;;;;;;;4.28;1.90;;;;;;;;;;5094191;28;20032;-62
2022/09/06 13:57:01;;;;;;;2.47;1.70;;;;;;;;;;5094156;28;20031;-61
2022/09/06 13:59:27;;;;;;;2.25;1.80;;;;;;;;;;5094090;28;20032;-62
2022/09/06 14:01:59;;;;;;;2.05;1.55;;;;;;;;;;5093970;28;20024;-61
2022/09/06 14:04:25;;;;;;;2.05;1.70;;;;;;;;;;5094540;28;20027;-62
2022/09/06 14:06:51;;;;;;;1.80;1.42;;;;;;;;;;5094255;28;20016;-62
2022/09/06 14:09:16;;;;;;;2.00;1.60;;;;;;;;;;5093924;28;20431;-62
2022/09/06 14:11:42;;;;;;;2.50;1.52;;;;;;;;;;5075803;28;20034;-61
2022/09/06 14:14:08;;;;;;;2.85;1.80;;;;;;;;;;5094141;28;20035;-62
2022/09/06 14:16:40;;;;;;;2.45;1.70;;;;;;;;;;5093819;28;20462;-62
2022/09/06 14:19:05;;;;;;;6.78;3.33;;;;;;;;;;5094345;28;20063;-61
2022/09/06 14:21:31;;;;;;;6.90;4.22;;;;;;;;;;5058862;28;20123;-62
2022/09/06 14:23:57;;;;;;;5.25;2.53;;;;;;;;;;5093028;28;20376;-62
2022/09/06 14:26:22;;;;;;;5.85;2.47;;;;;;;;;;5093761;28;20382;-62
2022/09/06 14:28:48;;;;;;;2.55;2.00;;;;;;;;;;5093751;28;20051;-61
2022/09/06 14:31:15;;;;;;;2.47;2.13;;;;;;;;;;5093710;28;20361;-62
2022/09/06 14:33:41;;;;;;;2.47;1.90;;;;;;;;;;5093688;28;20024;-62
2022/09/06 14:36:08;;;;;;;4.00;1.95;;;;;;;;;;5075899;28;20015;-62
2022/09/06 14:38:34;;;;;;;2.95;2.00;;;;;;;;;;5075923;28;20052;-61
2022/09/06 14:41:04;;;;;;;3.55;1.88;;;;;;;;;;5093908;28;20019;-61
2022/09/06 14:43:29;;;;;;;2.20;2.00;;;;;;;;;;5093843;28;20081;-62
2022/09/06 14:46:00;;;;;;;4.60;2.20;;;;;;;;;;5094153;28;20095;-61
2022/09/06 14:48:28;;;;;;;2.30;1.90;;;;;;;;;;5093516;28;20028;-61
2022/09/06 14:50:54;;;;;;;2.97;2.35;;;;;;;;;;5093515;28;20448;-61
2022/09/06 14:53:19;;;;;;;2.65;2.20;;;;;;;;;;5093753;28;20031;-62